createdAt,value
2022-12-16T05:29:35.863Z,27.2
2022-12-16T05:35:43.075Z,26.4
2022-12-16T05:48:31.631Z,23.9
2022-12-16T06:00:51.537Z,23.6
2022-12-16T06:07:05.132Z,22.5
2022-12-16T06:13:07.918Z,40.7
2022-12-16T06:19:20.513Z,155.8
2022-12-16T06:25:31.053Z,90.2
2022-12-16T06:31:42.639Z,40.8
2022-12-16T06:37:49.194Z,42.8
2022-12-16T06:43:55.406Z,31.5
2022-12-16T06:56:25.952Z,28.2
2022-12-16T07:02:33.136Z,25.9
2022-12-16T07:08:44.844Z,24.4
2022-12-16T07:14:53.873Z,25.3
2022-12-16T07:21:12.902Z,25
2022-12-16T07:27:18.216Z,26.8
2022-12-16T07:33:12.113Z,30.4
2022-12-16T07:39:18.938Z,43.6
2022-12-16T07:46:03.677Z,31.6
2022-12-16T07:52:05.456Z,28.7
2022-12-16T07:58:14.160Z,31.3
2022-12-16T08:04:39.828Z,35.8
2022-12-16T08:10:45.847Z,38.1
2022-12-16T08:23:42.076Z,39.5
2022-12-16T08:30:21.181Z,46.4
2022-12-16T08:36:26.791Z,42.2
2022-12-16T08:42:46.285Z,36.7
2022-12-16T08:48:47.113Z,40.4
2022-12-16T08:55:14.554Z,39.5
2022-12-16T09:01:46.733Z,44.9
2022-12-16T09:07:53.709Z,42.6
2022-12-16T09:13:46.852Z,46.7
2022-12-16T09:26:29.172Z,46
2022-12-16T09:32:51.046Z,57.8
2022-12-16T09:38:53.626Z,45.4
2022-12-16T09:44:49.299Z,49.9
2022-12-16T09:51:00.407Z,49.3
2022-12-16T09:57:01.514Z,43.7
2022-12-16T10:03:12.898Z,44.8
2022-12-16T10:09:08.165Z,47.7
2022-12-16T10:15:01.087Z,56.3
2022-12-16T10:20:51.743Z,62.6
2022-12-16T10:26:49.855Z,62.2
2022-12-16T10:32:52.765Z,48.2
2022-12-16T10:38:43.886Z,49
2022-12-16T10:51:21.604Z,43.4
2022-12-16T10:57:23.160Z,50.1
2022-12-16T11:03:16.580Z,40.5
2022-12-16T11:09:17.915Z,42.5
2022-12-16T11:15:47.758Z,42.9
2022-12-16T11:21:43.520Z,41.9
2022-12-16T11:27:40.430Z,41
2022-12-16T12:23:01.799Z,39.4
2022-12-16T13:42:37.949Z,44.6
2022-12-16T13:49:28.497Z,51.2
2022-12-16T14:15:21.605Z,45.4
2022-12-16T14:22:00.087Z,46
2022-12-16T14:34:51.697Z,47.7
2022-12-16T14:41:06.647Z,47.6
2022-12-16T14:53:20.681Z,50.9
2022-12-16T15:11:59.281Z,54.1
2022-12-16T15:38:02.306Z,58.9
2022-12-16T15:44:34.434Z,61.6
2022-12-16T16:03:49.912Z,62.8
2022-12-16T16:10:10.061Z,66.3
2022-12-16T16:16:21.203Z,63.8
2022-12-16T17:52:34.837Z,68.5
2022-12-16T18:10:52.015Z,62.8
2022-12-16T19:05:13.563Z,69.8
2022-12-16T19:12:13.604Z,70.3
2022-12-16T19:18:03.341Z,78.2
2022-12-16T19:25:04.484Z,71.3
2022-12-16T19:30:59.147Z,78.6
2022-12-16T19:37:12.497Z,68.7
2022-12-16T19:43:02.749Z,70.5
2022-12-16T19:49:00.585Z,74.4
2022-12-16T19:54:54.817Z,62.3
2022-12-16T20:01:00.113Z,62.4
2022-12-16T20:06:51.776Z,79.3
2022-12-16T20:12:47.952Z,65.2
2022-12-16T20:18:40.440Z,51.9
2022-12-16T20:24:32.527Z,62.3
2022-12-16T20:30:28.516Z,58.1
2022-12-16T20:36:20.055Z,55.5
2022-12-16T20:42:17.751Z,53.8
2022-12-16T20:48:13.583Z,57.3
2022-12-16T20:54:12.489Z,57.1
2022-12-16T21:00:04.436Z,62.6
2022-12-16T21:06:00.821Z,58.5
2022-12-16T21:11:51.454Z,56.1
2022-12-16T21:17:49.871Z,49.9
2022-12-16T21:23:48.233Z,49.4
2022-12-16T21:29:49.006Z,52.6
2022-12-16T21:35:45.533Z,53.4
2022-12-16T21:41:51.059Z,52.7
2022-12-16T21:53:48.400Z,47.9
2022-12-16T22:00:02.844Z,48.6
2022-12-16T22:05:52.420Z,54.6
2022-12-16T22:11:48.397Z,44.1
2022-12-16T22:17:44.182Z,47.9
2022-12-16T22:23:36.451Z,57.7
2022-12-16T22:29:26.756Z,51.7
2022-12-16T22:35:20.077Z,46.5
2022-12-16T22:41:11.883Z,48.6
2022-12-16T22:47:07.311Z,56.8
2022-12-16T22:53:00.033Z,66.6
2022-12-16T22:58:52.226Z,54.4
2022-12-16T23:04:45.962Z,58.9
2022-12-16T23:10:44.542Z,50
2022-12-16T23:16:34.778Z,53.6
2022-12-16T23:22:29.593Z,47.6
2022-12-16T23:28:25.274Z,38
2022-12-16T23:34:18.111Z,41.8
2022-12-16T23:40:08.031Z,43.5
2022-12-16T23:46:03.628Z,46
2022-12-16T23:52:03.557Z,51.3
2022-12-16T23:58:00.812Z,43.1
